createdAt,value
2023-03-30T00:02:05.292Z,101765.44
2023-03-30T00:04:34.833Z,101764.59
2023-03-30T00:07:02.246Z,101773.50
2023-03-30T00:09:30.817Z,101769.09
2023-03-30T00:12:03.462Z,101769.97
2023-03-30T00:14:30.750Z,101766.44
2023-03-30T00:16:58.089Z,101772.66
2023-03-30T00:19:26.484Z,101772.66
2023-03-30T00:21:54.008Z,101769.97
2023-03-30T00:24:21.260Z,101761.91
2023-03-30T00:26:48.887Z,101764.59
2023-03-30T00:29:17.247Z,101765.56
2023-03-30T00:31:44.675Z,101770.81
2023-03-30T00:34:12.069Z,101771.78
2023-03-30T00:36:39.473Z,101764.72
2023-03-30T00:39:08.621Z,101766.44
2023-03-30T00:41:36.963Z,101764.59
2023-03-30T00:44:06.974Z,101762.88
2023-03-30T00:46:34.467Z,101768.25
2023-03-30T00:49:10.374Z,101769.09
2023-03-30T00:51:40.481Z,101770.09
2023-03-30T00:54:13.550Z,101770.94
2023-03-30T00:56:41.051Z,101761.06
2023-03-30T00:59:09.235Z,101760.19
2023-03-30T01:01:39.537Z,101764.72
2023-03-30T01:04:10.337Z,101767.41
2023-03-30T01:06:40.661Z,101769.22
2023-03-30T01:09:08.662Z,101767.41
2023-03-30T01:11:36.551Z,101764.72
2023-03-30T01:14:10.605Z,101762.88
2023-03-30T01:16:42.051Z,101746.91
2023-03-30T01:19:38.658Z,101745.94
2023-03-30T01:22:27.572Z,101743.25
2023-03-30T01:25:18.448Z,101746.78
2023-03-30T01:28:23.363Z,101738.84
2023-03-30T01:30:53.835Z,101737.97
2023-03-30T01:33:30.680Z,101738.84
2023-03-30T01:36:11.742Z,101740.66
2023-03-30T01:38:44.801Z,101743.34
2023-03-30T01:41:23.044Z,101736.16
2023-03-30T01:44:08.404Z,101734.34
2023-03-30T01:46:46.075Z,101736.16
2023-03-30T01:49:27.694Z,101739.78
2023-03-30T01:52:02.802Z,101729.06
2023-03-30T01:54:36.277Z,101722.84
2023-03-30T01:57:12.687Z,101723.69
2023-03-30T01:59:42.059Z,101726.38
2023-03-30T02:02:13.631Z,101722.00
2023-03-30T02:04:45.762Z,101728.22
2023-03-30T02:07:18.390Z,101725.53
2023-03-30T02:09:49.182Z,101725.53
2023-03-30T02:12:18.427Z,101724.66
2023-03-30T02:14:49.507Z,101723.69
2023-03-30T02:17:28.720Z,101729.91
2023-03-30T02:19:59.505Z,101740.78
2023-03-30T02:22:29.503Z,101738.94
2023-03-30T02:24:58.300Z,101747.00
2023-03-30T02:27:27.336Z,101735.41
2023-03-30T02:29:56.390Z,101738.09
2023-03-30T02:32:27.710Z,101738.09
2023-03-30T02:35:04.400Z,101733.69
2023-03-30T02:38:05.774Z,101728.34
2023-03-30T02:40:37.850Z,101731.88
2023-03-30T02:43:22.120Z,101731.88
2023-03-30T02:45:49.302Z,101730.16
2023-03-30T02:48:23.915Z,101724.78
2023-03-30T02:50:56.476Z,101723.94
2023-03-30T02:53:52.652Z,101710.41
2023-03-30T02:57:10.819Z,101720.28
2023-03-30T02:59:56.947Z,101712.22
2023-03-30T03:02:58.425Z,101703.19
2023-03-30T03:05:32.520Z,101700.63
2023-03-30T03:08:14.689Z,101712.22
2023-03-30T03:10:43.238Z,101711.38
2023-03-30T03:13:14.246Z,101709.53
2023-03-30T03:15:45.356Z,101697.97
2023-03-30T03:18:13.516Z,101693.44
2023-03-30T03:20:42.643Z,101688.06
2023-03-30T03:23:10.517Z,101686.38
2023-03-30T03:25:45.357Z,101686.38
2023-03-30T03:28:15.502Z,101686.38
2023-03-30T03:30:49.117Z,101689.06
2023-03-30T03:33:20.537Z,101688.16
2023-03-30T03:35:59.914Z,101681.00
2023-03-30T03:38:28.946Z,101689.91
2023-03-30T03:40:59.346Z,101675.63
2023-03-30T03:43:27.489Z,101682.81
2023-03-30T03:45:55.317Z,101682.81
2023-03-30T03:48:24.748Z,101686.38
2023-03-30T03:50:55.324Z,101685.47
2023-03-30T03:53:24.224Z,101673.91
2023-03-30T03:55:55.792Z,101674.88
2023-03-30T03:58:24.191Z,101675.72
2023-03-30T04:00:52.126Z,101674.88
2023-03-30T04:03:19.549Z,101679.25
2023-03-30T04:05:46.883Z,101686.47
2023-03-30T04:08:14.198Z,101686.47
2023-03-30T04:10:41.801Z,101678.53
2023-03-30T04:13:27.178Z,101673.16
2023-03-30T04:16:14.643Z,101683.91
2023-03-30T04:19:04.716Z,101684.63
2023-03-30T04:21:53.014Z,101684.75
2023-03-30T04:24:29.893Z,101687.44
2023-03-30T04:27:17.033Z,101683.78
2023-03-30T04:30:03.674Z,101693.66
2023-03-30T04:33:02.551Z,101693.66
2023-03-30T04:35:53.236Z,101679.38
2023-03-30T04:38:38.586Z,101680.25
2023-03-30T04:41:19.195Z,101675.84
2023-03-30T04:43:46.371Z,101675.84
2023-03-30T04:46:49.078Z,101677.56
2023-03-30T04:49:42.245Z,101685.59
2023-03-30T04:52:38.423Z,101681.22
2023-03-30T04:55:24.318Z,101674.09
2023-03-30T04:58:04.009Z,101685.72
2023-03-30T05:00:56.025Z,101685.72
2023-03-30T05:03:56.156Z,101680.34
2023-03-30T05:06:49.756Z,101694.72
2023-03-30T05:09:23.624Z,101692.03
2023-03-30T05:12:20.782Z,101689.34
2023-03-30T05:15:08.812Z,101684.97
2023-03-30T05:17:52.348Z,101685.81
2023-03-30T05:20:38.444Z,101683.13
2023-03-30T05:23:24.658Z,101693.84
2023-03-30T05:25:52.796Z,101680.56
2023-03-30T05:28:38.625Z,101680.56
2023-03-30T05:31:20.772Z,101666.28
2023-03-30T05:34:11.030Z,101677.97
2023-03-30T05:36:50.056Z,101687.75
2023-03-30T05:39:35.463Z,101681.53
2023-03-30T05:42:38.160Z,101686.78
2023-03-30T05:45:25.661Z,101684.09
2023-03-30T05:48:03.476Z,101683.34
2023-03-30T05:50:42.997Z,101678.84
2023-03-30T05:53:20.090Z,101691.31
2023-03-30T05:56:07.296Z,101696.75
2023-03-30T05:58:51.652Z,101697.63
2023-03-30T06:01:42.744Z,101693.13
2023-03-30T06:04:10.119Z,101691.38
2023-03-30T06:06:40.094Z,101684.22
2023-03-30T06:09:10.473Z,101696.66
2023-03-30T06:11:38.142Z,101700.19
2023-03-30T06:14:19.607Z,101706.41
2023-03-30T06:17:07.758Z,101708.13
2023-03-30T06:19:35.480Z,101717.03
2023-03-30T06:22:03.012Z,101720.69
2023-03-30T06:24:38.544Z,101715.31
2023-03-30T06:27:08.408Z,101705.44
2023-03-30T06:29:36.829Z,101691.19
2023-03-30T06:32:04.947Z,101684.09
2023-03-30T06:35:03.663Z,101685.81
2023-03-30T06:37:36.301Z,101694.84
2023-03-30T06:40:08.652Z,101706.31
2023-03-30T06:42:36.723Z,101717.03
2023-03-30T06:45:17.918Z,101717.94
2023-03-30T06:47:46.230Z,101714.34
2023-03-30T06:50:14.563Z,101718.78
2023-03-30T06:53:00.093Z,101715.97
2023-03-30T06:55:33.627Z,101723.16
2023-03-30T06:58:01.633Z,101723.94
2023-03-30T07:00:29.730Z,101723.06
2023-03-30T07:03:34.729Z,101715.88
2023-03-30T07:06:16.831Z,101731.00
2023-03-30T07:08:46.040Z,101722.84
2023-03-30T07:11:18.628Z,101722.00
2023-03-30T07:13:46.011Z,101726.50
2023-03-30T07:16:13.494Z,101732.72
2023-03-30T07:18:40.978Z,101735.28
2023-03-30T07:21:08.421Z,101738.84
2023-03-30T07:23:40.774Z,101736.16
2023-03-30T07:26:10.915Z,101737.88
2023-03-30T07:28:53.634Z,101743.25
2023-03-30T07:31:24.425Z,101750.31
2023-03-30T07:33:52.073Z,101751.19
2023-03-30T07:36:23.916Z,101755.56
2023-03-30T07:38:52.084Z,101754.63
2023-03-30T07:41:19.800Z,101756.34
2023-03-30T07:43:51.464Z,101752.69
2023-03-30T07:46:18.855Z,101749.03
2023-03-30T07:48:49.781Z,101761.50
2023-03-30T07:51:17.368Z,101760.66
2023-03-30T07:54:12.968Z,101758.81
2023-03-30T07:57:01.395Z,101761.38
2023-03-30T07:59:29.351Z,101759.56
2023-03-30T08:02:05.702Z,101758.56
2023-03-30T08:05:00.313Z,101753.97
2023-03-30T08:07:36.627Z,101743.13
2023-03-30T08:10:13.510Z,101743.03
2023-03-30T08:12:41.514Z,101738.50
2023-03-30T08:15:09.501Z,101739.38
2023-03-30T08:17:37.313Z,101735.72
2023-03-30T08:20:10.779Z,101741.06
2023-03-30T08:22:38.072Z,101739.25
2023-03-30T08:25:05.745Z,101736.56
2023-03-30T08:27:33.079Z,101731.19
2023-03-30T08:30:00.394Z,101731.19
2023-03-30T08:32:27.678Z,101731.19
2023-03-30T08:34:55.127Z,101725.81
2023-03-30T08:37:22.972Z,101729.50
2023-03-30T08:39:50.232Z,101723.25
2023-03-30T08:42:39.544Z,101724.97
2023-03-30T08:45:10.746Z,101730.34
2023-03-30T08:47:42.756Z,101726.81
2023-03-30T08:50:22.801Z,101733.88
2023-03-30T08:52:52.306Z,101726.81
2023-03-30T08:55:24.696Z,101725.81
2023-03-30T08:58:13.499Z,101729.50
2023-03-30T09:00:52.500Z,101730.34
2023-03-30T09:03:57.953Z,101729.38
2023-03-30T09:06:47.305Z,101717.69
2023-03-30T09:09:27.843Z,101710.50
2023-03-30T09:12:06.767Z,101719.41
2023-03-30T09:14:40.501Z,101721.97
2023-03-30T09:17:21.213Z,101721.00
2023-03-30T09:19:57.742Z,101715.66
2023-03-30T09:22:32.366Z,101711.97
2023-03-30T09:24:59.825Z,101710.16
2023-03-30T09:27:45.489Z,101709.28
2023-03-30T09:30:20.297Z,101718.22
2023-03-30T09:33:00.661Z,101714.53
2023-03-30T09:35:40.706Z,101724.31
2023-03-30T09:38:12.286Z,101724.31
2023-03-30T09:41:08.818Z,101724.31
2023-03-30T09:43:46.284Z,101725.19
2023-03-30T09:46:15.783Z,101727.00
2023-03-30T09:48:44.536Z,101730.56
2023-03-30T09:51:21.241Z,101727.88
2023-03-30T09:53:51.910Z,101725.19
2023-03-30T09:56:28.481Z,101719.81
2023-03-30T09:58:56.208Z,101712.72
2023-03-30T10:01:38.236Z,101716.25
2023-03-30T10:04:11.102Z,101713.56
2023-03-30T10:06:47.434Z,101714.44
2023-03-30T10:09:17.239Z,101705.41
2023-03-30T10:11:48.331Z,101697.47
2023-03-30T10:14:31.617Z,101699.19
2023-03-30T10:16:59.551Z,101699.28
2023-03-30T10:19:27.294Z,101694.78
2023-03-30T10:21:59.385Z,101698.34
2023-03-30T10:24:29.595Z,101698.34
2023-03-30T10:27:09.893Z,101696.53
2023-03-30T10:29:37.337Z,101692.00
2023-03-30T10:32:17.520Z,101674.91
2023-03-30T10:34:52.363Z,101675.78
2023-03-30T10:37:26.441Z,101666.00
2023-03-30T10:39:55.463Z,101674.91
2023-03-30T10:42:26.941Z,101677.59
2023-03-30T10:44:58.277Z,101667.72
2023-03-30T10:47:37.909Z,101664.19
2023-03-30T10:50:23.619Z,101667.63
2023-03-30T10:53:06.614Z,101664.06
2023-03-30T10:55:36.977Z,101658.59
2023-03-30T10:58:19.978Z,101647.00
2023-03-30T11:01:22.190Z,101649.69
2023-03-30T11:03:58.103Z,101645.16
2023-03-30T11:06:38.460Z,101636.13
2023-03-30T11:09:14.638Z,101629.91
2023-03-30T11:12:03.599Z,101628.06
2023-03-30T11:15:03.551Z,101635.28
2023-03-30T11:17:49.460Z,101619.03
2023-03-30T11:20:24.474Z,101619.91
2023-03-30T11:22:59.661Z,101611.84
2023-03-30T11:25:34.739Z,101604.69
2023-03-30T11:28:15.127Z,101592.19
2023-03-30T11:30:43.944Z,101594.66
2023-03-30T11:33:29.343Z,101597.34
2023-03-30T11:36:23.953Z,101592.84
2023-03-30T11:39:00.889Z,101581.25
2023-03-30T11:41:36.898Z,101583.91
2023-03-30T11:44:04.632Z,101563.50
2023-03-30T11:46:55.702Z,101559.97
2023-03-30T11:49:57.013Z,101559.03
2023-03-30T11:52:52.291Z,101548.38
2023-03-30T11:55:34.549Z,101561.72
2023-03-30T11:58:14.710Z,101560.81
2023-03-30T12:00:47.700Z,101564.41
2023-03-30T12:03:35.756Z,101560.81
2023-03-30T12:06:12.164Z,101554.59
2023-03-30T12:09:10.504Z,101547.31
2023-03-30T12:12:02.126Z,101547.31
2023-03-30T12:15:01.695Z,101534.75
2023-03-30T12:17:56.642Z,101526.69
2023-03-30T12:20:47.276Z,101513.25
2023-03-30T12:23:46.114Z,101520.34
2023-03-30T12:26:31.443Z,101509.59
2023-03-30T12:29:44.398Z,101513.13
2023-03-30T12:32:03.298Z,101509.59
2023-03-30T12:34:36.651Z,101513.13
2023-03-30T12:37:23.286Z,101510.44
2023-03-30T12:39:59.910Z,101514.88
2023-03-30T12:42:39.686Z,101509.50
2023-03-30T12:45:21.455Z,101513.13
2023-03-30T12:47:58.815Z,101507.75
2023-03-30T12:50:38.721Z,101504.13
2023-03-30T12:53:21.232Z,101498.75
2023-03-30T12:56:05.931Z,101488.97
2023-03-30T12:59:14.916Z,101501.44
2023-03-30T13:01:48.300Z,101496.94
2023-03-30T13:04:24.044Z,101484.44
2023-03-30T13:06:54.456Z,101477.28
2023-03-30T13:09:23.199Z,101477.28
2023-03-30T13:11:53.396Z,101470.06
2023-03-30T13:14:27.853Z,101473.63
2023-03-30T13:16:56.347Z,101471.03
2023-03-30T13:19:28.293Z,101471.91
2023-03-30T13:21:57.725Z,101466.53
2023-03-30T13:24:30.917Z,101463.84
2023-03-30T13:27:16.937Z,101462.13
2023-03-30T13:30:10.737Z,101467.38
2023-03-30T13:33:15.612Z,101456.66
2023-03-30T13:36:04.298Z,101452.22
2023-03-30T13:38:46.771Z,101453.13
2023-03-30T13:41:41.025Z,101452.22
2023-03-30T13:44:23.525Z,101447.75
2023-03-30T13:46:58.763Z,101447.75
2023-03-30T13:49:47.338Z,101445.06
2023-03-30T13:52:19.638Z,101433.44
2023-03-30T13:54:47.647Z,101432.56
2023-03-30T13:57:22.191Z,101431.63
2023-03-30T14:00:04.474Z,101428.94
2023-03-30T14:02:39.820Z,101432.47
2023-03-30T14:05:14.484Z,101424.44
2023-03-30T14:07:43.623Z,101422.69
2023-03-30T14:10:17.537Z,101408.31
2023-03-30T14:12:47.896Z,101409.25
2023-03-30T14:15:18.001Z,101414.63
2023-03-30T14:17:58.524Z,101411.00
2023-03-30T14:20:50.735Z,101399.41
2023-03-30T14:23:23.115Z,101391.34
2023-03-30T14:25:57.867Z,101392.22
2023-03-30T14:28:27.837Z,101386.84
2023-03-30T14:30:58.766Z,101384.25
2023-03-30T14:33:26.559Z,101384.25
2023-03-30T14:35:58.427Z,101367.19
2023-03-30T14:38:48.368Z,101350.19
2023-03-30T14:41:30.247Z,101352.88
2023-03-30T14:44:06.596Z,101343.03
2023-03-30T14:46:46.817Z,101350.19
2023-03-30T14:49:35.169Z,101350.19
2023-03-30T14:52:24.113Z,101346.66
2023-03-30T14:55:06.018Z,101339.47
2023-03-30T14:57:38.993Z,101334.97
2023-03-30T15:00:18.841Z,101334.97
2023-03-30T15:03:09.724Z,101324.22
2023-03-30T15:05:42.908Z,101310.06
2023-03-30T15:08:20.548Z,101314.44
2023-03-30T15:10:56.627Z,101311.66
2023-03-30T15:13:33.727Z,101304.56
2023-03-30T15:16:02.007Z,101299.19
2023-03-30T15:18:32.094Z,101295.66
2023-03-30T15:21:00.344Z,101296.50
2023-03-30T15:23:38.114Z,101301.00
2023-03-30T15:26:07.155Z,101313.59
2023-03-30T15:28:44.369Z,101331.53
2023-03-30T15:31:14.583Z,101315.28
2023-03-30T15:33:50.491Z,101303.69
2023-03-30T15:36:26.244Z,101309.19
2023-03-30T15:38:58.838Z,101300.16
2023-03-30T15:41:47.400Z,101292.97
2023-03-30T15:44:20.385Z,101279.66
2023-03-30T15:46:51.310Z,101285.91
2023-03-30T15:49:22.497Z,101278.69
2023-03-30T15:51:56.696Z,101268.94
2023-03-30T15:54:29.876Z,101265.25
2023-03-30T15:56:56.984Z,101264.41
2023-03-30T15:59:30.811Z,101267.09
2023-03-30T16:02:03.194Z,101272.59
2023-03-30T16:04:32.409Z,101283.34
2023-03-30T16:06:59.722Z,101277.97
2023-03-30T16:09:27.396Z,101266.25
2023-03-30T16:11:54.815Z,101262.81
2023-03-30T16:14:22.010Z,101261.84
2023-03-30T16:16:49.321Z,101256.50
2023-03-30T16:19:19.665Z,101258.31
2023-03-30T16:21:46.982Z,101266.38
2023-03-30T16:24:16.723Z,101257.44
2023-03-30T16:26:43.960Z,101247.59
2023-03-30T16:29:21.597Z,101256.50
2023-03-30T16:31:53.564Z,101256.50
2023-03-30T16:34:24.848Z,101260.13
2023-03-30T16:36:52.899Z,101258.44
2023-03-30T16:39:25.826Z,101259.28
2023-03-30T16:41:53.922Z,101269.06
2023-03-30T16:44:22.956Z,101269.06
2023-03-30T16:46:51.363Z,101268.19
2023-03-30T16:49:24.730Z,101271.75
2023-03-30T16:51:55.209Z,101283.34
2023-03-30T16:54:31.234Z,101287.72
2023-03-30T16:57:00.569Z,101280.66
2023-03-30T16:59:30.707Z,101286.03
2023-03-30T17:01:58.966Z,101284.19
2023-03-30T17:04:26.718Z,101277.97
2023-03-30T17:06:54.790Z,101280.66
2023-03-30T17:09:22.543Z,101279.66
2023-03-30T17:11:51.167Z,101272.47
2023-03-30T17:14:20.412Z,101278.69
2023-03-30T17:16:47.884Z,101287.59
2023-03-30T17:19:15.438Z,101290.19
2023-03-30T17:21:43.824Z,101278.59
2023-03-30T17:24:12.834Z,101283.97
2023-03-30T17:26:43.014Z,101281.28
2023-03-30T17:29:10.877Z,101280.38
2023-03-30T17:31:38.677Z,101281.13
2023-03-30T17:34:07.457Z,101277.59
2023-03-30T17:36:34.921Z,101277.59
2023-03-30T17:39:05.181Z,101280.16
2023-03-30T17:41:38.165Z,101280.28
2023-03-30T17:44:05.501Z,101281.13
2023-03-30T17:46:33.006Z,101282.00
2023-03-30T17:49:00.710Z,101280.28
2023-03-30T17:51:28.135Z,101281.13
2023-03-30T17:53:55.424Z,101284.81
2023-03-30T17:56:22.725Z,101286.50
2023-03-30T17:58:50.056Z,101278.44
2023-03-30T18:01:17.396Z,101275.91
2023-03-30T18:03:45.142Z,101274.91
2023-03-30T18:06:13.054Z,101279.31
2023-03-30T18:08:40.576Z,101282.00
2023-03-30T18:11:08.099Z,101275.63
2023-03-30T18:13:35.985Z,101276.63
2023-03-30T18:16:03.366Z,101277.47
2023-03-30T18:18:31.159Z,101276.47
2023-03-30T18:21:03.149Z,101282.84
2023-03-30T18:23:33.292Z,101285.53
2023-03-30T18:26:01.706Z,101285.53
2023-03-30T18:28:30.755Z,101287.34
2023-03-30T18:30:58.640Z,101288.34
2023-03-30T18:33:27.238Z,101291.88
2023-03-30T18:35:56.839Z,101298.94
2023-03-30T18:38:25.617Z,101309.69
2023-03-30T18:40:57.551Z,101287.34
2023-03-30T18:43:26.613Z,101301.63
2023-03-30T18:46:02.595Z,101296.16
2023-03-30T18:48:30.433Z,101295.28
2023-03-30T18:50:58.018Z,101295.28
2023-03-30T18:53:28.160Z,101299.69
2023-03-30T18:55:58.632Z,101290.66
2023-03-30T18:58:28.516Z,101280.91
2023-03-30T19:00:56.546Z,101276.38
2023-03-30T19:03:25.642Z,101283.59
2023-03-30T19:05:53.555Z,101273.69
2023-03-30T19:08:23.692Z,101277.22
2023-03-30T19:10:53.235Z,101278.09
2023-03-30T19:13:21.559Z,101279.78
2023-03-30T19:15:50.843Z,101287.84
2023-03-30T19:18:18.552Z,101286.00
2023-03-30T19:20:46.725Z,101286.00
2023-03-30T19:23:15.666Z,101286.88
2023-03-30T19:25:44.414Z,101286.00
2023-03-30T19:28:12.053Z,101286.00
2023-03-30T19:30:40.029Z,101291.38
2023-03-30T19:33:12.143Z,101286.88
2023-03-30T19:35:41.083Z,101286.88
2023-03-30T19:38:08.880Z,101295.78
2023-03-30T19:40:38.094Z,101301.16
2023-03-30T19:43:05.676Z,101300.31
2023-03-30T19:45:33.264Z,101301.16
2023-03-30T19:48:00.670Z,101294.94
2023-03-30T19:50:29.945Z,101309.22
2023-03-30T19:52:58.496Z,101307.38
2023-03-30T19:55:26.382Z,101303.84
2023-03-30T19:57:53.830Z,101310.06
2023-03-30T20:00:21.409Z,101318.13
2023-03-30T20:02:51.536Z,101305.56
2023-03-30T20:05:20.987Z,101307.38
2023-03-30T20:07:48.810Z,101305.56
2023-03-30T20:10:20.290Z,101313.59
2023-03-30T20:12:48.183Z,101313.59
2023-03-30T20:15:17.079Z,101306.41
2023-03-30T20:17:44.803Z,101304.69
2023-03-30T20:20:14.428Z,101304.69
2023-03-30T20:22:43.638Z,101298.47
2023-03-30T20:25:13.891Z,101309.22
2023-03-30T20:27:41.495Z,101319.13
2023-03-30T20:30:10.100Z,101326.28
2023-03-30T20:32:37.726Z,101342.28
2023-03-30T20:35:06.368Z,101349.59
2023-03-30T20:37:34.244Z,101357.66
2023-03-30T20:40:09.568Z,101361.19
2023-03-30T20:42:40.024Z,101360.34
2023-03-30T20:45:08.250Z,101377.31
2023-03-30T20:47:35.828Z,101360.34
2023-03-30T20:50:04.785Z,101362.19
2023-03-30T20:52:32.098Z,101356.81
2023-03-30T20:54:59.687Z,101353.28
2023-03-30T20:57:27.397Z,101354.97
2023-03-30T20:59:54.938Z,101352.28
2023-03-30T21:02:22.293Z,101355.72
2023-03-30T21:04:50.470Z,101353.03
2023-03-30T21:07:18.177Z,101338.63
2023-03-30T21:09:45.863Z,101330.44
2023-03-30T21:12:13.150Z,101330.44
2023-03-30T21:14:40.552Z,101337.63
2023-03-30T21:17:08.141Z,101339.47
2023-03-30T21:19:36.700Z,101353.75
2023-03-30T21:22:04.544Z,101354.75
2023-03-30T21:24:32.946Z,101362.78
2023-03-30T21:27:00.389Z,101361.81
2023-03-30T21:29:27.622Z,101356.44
2023-03-30T21:31:55.159Z,101366.22
2023-03-30T21:34:22.427Z,101359.97
2023-03-30T21:36:49.827Z,101355.50
2023-03-30T21:39:17.188Z,101349.22
2023-03-30T21:41:45.291Z,101353.66
2023-03-30T21:44:13.632Z,101354.59
2023-03-30T21:46:41.076Z,101354.59
2023-03-30T21:49:08.484Z,101347.44
2023-03-30T21:51:35.825Z,101336.69
2023-03-30T21:54:03.573Z,101334.84
2023-03-30T21:56:31.348Z,101336.69
2023-03-30T21:58:59.414Z,101336.69
2023-03-30T22:01:27.802Z,101338.50
2023-03-30T22:03:55.980Z,101345.59
2023-03-30T22:06:24.013Z,101342.06
2023-03-30T22:08:51.316Z,101330.44
2023-03-30T22:11:21.795Z,101336.69
2023-03-30T22:13:49.766Z,101335.72
2023-03-30T22:16:22.393Z,101317.88
2023-03-30T22:18:50.808Z,101309.84
2023-03-30T22:21:24.120Z,101305.41
2023-03-30T22:23:52.904Z,101310.78
2023-03-30T22:26:20.768Z,101307.25
2023-03-30T22:28:48.111Z,101306.41
2023-03-30T22:31:15.821Z,101311.78
2023-03-30T22:33:43.140Z,101322.50
2023-03-30T22:36:16.885Z,101325.34
2023-03-30T22:38:44.523Z,101319.13
2023-03-30T22:41:12.005Z,101317.38
2023-03-30T22:43:39.425Z,101320.06
2023-03-30T22:46:07.550Z,101324.59
2023-03-30T22:48:35.686Z,101326.41
2023-03-30T22:51:04.554Z,101314.81
2023-03-30T22:53:32.641Z,101310.44
2023-03-30T22:56:01.327Z,101308.59
2023-03-30T22:58:28.589Z,101299.69
2023-03-30T23:01:10.671Z,101299.69
2023-03-30T23:03:38.303Z,101293.47
2023-03-30T23:06:05.772Z,101291.63
2023-03-30T23:08:33.284Z,101288.97
2023-03-30T23:11:04.997Z,101282.75
2023-03-30T23:13:37.610Z,101272.00
2023-03-30T23:16:06.716Z,101277.47
2023-03-30T23:18:35.038Z,101272.94
2023-03-30T23:21:06.972Z,101273.94
2023-03-30T23:23:37.895Z,101279.31
2023-03-30T23:26:09.689Z,101271.25
2023-03-30T23:28:39.258Z,101268.56
2023-03-30T23:31:17.674Z,101279.31
2023-03-30T23:33:45.457Z,101265.88
2023-03-30T23:36:13.837Z,101274.91
2023-03-30T23:38:41.768Z,101274.91
2023-03-30T23:41:12.599Z,101274.91
2023-03-30T23:43:40.385Z,101256.97
2023-03-30T23:46:07.929Z,101251.59
2023-03-30T23:48:35.929Z,101259.66
2023-03-30T23:51:03.602Z,101249.06
2023-03-30T23:53:30.840Z,101247.22
2023-03-30T23:55:58.371Z,101243.69
2023-03-30T23:58:26.433Z,101241.00
